Time;durP1;ratioP1;P1;durP2;ratioP2;P2;SDS_P1;SDS_P2;PMS_P1;PMS_P2;Temp;Humidity;BMP_temperature;BMP_pressure;BME280_temperature;BME280_humidity;BME280_pressure;Samples;Min_cycle;Max_cycle;Signal;HPM_P1;HPM_P2
2023/10/06 00:02:20;;;;;;;76.03;10.37;;;13.50;85.10;;;;;;4974393;28;20431;-83
2023/10/06 00:04:46;;;;;;;75.20;11.53;;;13.50;88.30;;;;;;4974298;28;20406;-83
2023/10/06 00:07:14;;;;;;;73.60;9.93;;;13.40;90.90;;;;;;4977192;28;20486;-83
2023/10/06 00:09:43;;;;;;;70.70;10.13;;;13.40;91.10;;;;;;4960672;28;20411;-83
2023/10/06 00:12:13;;;;;;;72.20;10.80;;;13.40;92.50;;;;;;4977859;28;20828;-83
2023/10/06 00:14:39;;;;;;;74.30;10.77;;;13.30;94.70;;;;;;4978177;28;20411;-83
2023/10/06 00:17:15;;;;;;;72.93;11.20;;;13.40;93.90;;;;;;4977851;28;20413;-83
2023/10/06 00:19:42;;;;;;;72.43;10.87;;;13.40;94.30;;;;;;4960502;28;20505;-83
2023/10/06 00:24:58;;;;;;;73.90;9.97;;;13.40;92.80;;;;;;4977903;28;20414;-83
2023/10/06 00:27:30;;;;;;;71.30;10.33;;;13.50;92.90;;;;;;4978251;28;20402;-84
2023/10/06 00:29:56;;;;;;;72.87;11.97;;;13.50;91.50;;;;;;4977974;28;20434;-84
2023/10/06 00:32:24;;;;;;;73.57;11.50;;;13.40;93.00;;;;;;4977937;28;20921;-83
2023/10/06 00:34:52;;;;;;;71.10;11.40;;;13.40;93.20;;;;;;4977563;28;20411;-83
2023/10/06 00:37:22;;;;;;;73.67;10.60;;;13.40;91.40;;;;;;4977754;28;20499;-83
2023/10/06 00:39:50;;;;;;;73.33;11.63;;;13.40;90.60;;;;;;4977406;28;20471;-83
2023/10/06 00:42:26;;;;;;;73.87;10.87;;;13.30;93.60;;;;;;4960256;28;20847;-83
2023/10/06 00:44:53;;;;;;;71.63;10.70;;;13.30;92.90;;;;;;4977643;28;20376;-83
2023/10/06 00:47:21;;;;;;;75.65;11.77;;;13.30;92.20;;;;;;4977391;28;20175;-83
2023/10/06 00:49:46;;;;;;;76.50;11.25;;;13.20;94.20;;;;;;4977323;28;20167;-83
2023/10/06 00:52:15;;;;;;;71.37;10.07;;;13.20;93.90;;;;;;4977193;28;20239;-83
2023/10/06 00:54:44;;;;;;;73.80;11.90;;;13.20;93.90;;;;;;4977792;28;20458;-83
2023/10/06 00:57:19;;;;;;;72.10;12.20;;;13.20;94.00;;;;;;4960090;28;20407;-83
2023/10/06 00:59:45;;;;;;;73.93;11.38;;;13.30;93.70;;;;;;4959738;28;21013;-83
2023/10/06 01:02:14;;;;;;;72.27;11.67;;;13.20;93.30;;;;;;4977145;28;20192;-83
2023/10/06 01:04:45;;;;;;;71.60;10.75;;;13.20;93.00;;;;;;4977043;28;20164;-83
2023/10/06 01:07:16;;;;;;;72.22;11.10;;;13.20;93.50;;;;;;4959927;28;20171;-83
2023/10/06 01:10:07;;;;;;;73.00;12.43;;;13.20;94.30;;;;;;4977029;28;20149;-83
2023/10/06 01:12:33;;;;;;;72.97;11.30;;;13.20;93.50;;;;;;4977119;28;20426;-83
2023/10/06 01:15:17;;;;;;;73.40;11.97;;;13.20;93.20;;;;;;4976960;28;20944;-83
2023/10/06 01:17:44;;;;;;;73.37;12.40;;;13.20;93.60;;;;;;4977693;28;20546;-84
2023/10/06 01:20:11;;;;;;;71.83;11.10;;;13.10;94.00;;;;;;4977677;28;20438;-83
2023/10/06 01:22:44;;;;;;;75.30;11.77;;;13.10;94.00;;;;;;4977418;28;20459;-83
2023/10/06 01:25:19;;;;;;;72.28;12.38;;;13.10;94.10;;;;;;4976867;28;20509;-83
2023/10/06 01:27:45;;;;;;;72.37;10.10;;;13.10;95.40;;;;;;4977330;28;20148;-83
2023/10/06 01:30:20;;;;;;;75.63;11.23;;;13.10;94.10;;;;;;4959616;28;20946;-83
2023/10/06 01:32:50;;;;;;;80.03;12.10;;;13.10;94.20;;;;;;4959199;28;20282;-83
2023/10/06 01:35:23;;;;;;;76.43;12.70;;;13.10;94.70;;;;;;4976511;28;20538;-83
2023/10/06 01:37:59;;;;;;;77.35;12.35;;;13.10;94.80;;;;;;4977477;28;20399;-83
2023/10/06 01:42:51;;;;;;;75.50;13.53;;;12.90;96.30;;;;;;4976700;28;20216;-83
2023/10/06 01:45:21;;;;;;;73.70;11.88;;;12.90;96.40;;;;;;4976406;28;20182;-84
2023/10/06 01:48:09;;;;;;;75.50;11.90;;;12.90;96.90;;;;;;4958903;28;20178;-83
2023/10/06 01:50:35;;;;;;;75.80;13.00;;;12.90;97.30;;;;;;4976373;28;20179;-83
2023/10/06 01:53:05;;;;;;;76.35;11.88;;;12.90;97.80;;;;;;4977696;28;20801;-83
2023/10/06 01:55:37;;;;;;;74.50;14.32;;;12.90;98.00;;;;;;4977561;28;20174;-84
2023/10/06 01:58:04;;;;;;;76.43;13.07;;;12.90;96.80;;;;;;4959804;28;20202;-83
2023/10/06 02:00:34;;;;;;;74.05;11.85;;;12.90;96.90;;;;;;4959727;28;20669;-84
2023/10/06 02:03:10;;;;;;;73.80;13.23;;;12.90;96.60;;;;;;4958649;28;20219;-83
2023/10/06 02:10:44;;;;;;;72.20;11.75;;;12.80;98.00;;;;;;4994074;28;20207;-83
2023/10/06 02:13:11;;;;;;;74.60;12.00;;;12.80;97.60;;;;;;4980610;28;20180;-83
2023/10/06 02:15:36;;;;;;;73.50;14.90;;;12.80;98.40;;;;;;4958369;28;20432;-83
2023/10/06 02:18:02;;;;;;;73.60;12.87;;;12.80;97.40;;;;;;4976019;28;20434;-83
2023/10/06 02:22:57;;;;;;;73.77;14.00;;;12.80;97.30;;;;;;4976271;28;20450;-83
2023/10/06 02:25:25;;;;;;;75.25;14.65;;;12.80;96.60;;;;;;4958283;28;20271;-83
2023/10/06 02:27:51;;;;;;;73.60;13.50;;;12.80;97.60;;;;;;4958281;28;20168;-83
2023/10/06 02:30:19;;;;;;;73.47;13.65;;;12.80;96.70;;;;;;4975077;28;20825;-83
2023/10/06 02:32:48;;;;;;;76.28;14.15;;;12.80;97.40;;;;;;4958114;28;20270;-83
2023/10/06 02:35:17;;;;;;;78.35;14.93;;;12.80;96.80;;;;;;4958028;28;20262;-83
2023/10/06 02:37:45;;;;;;;73.38;15.15;;;12.80;96.90;;;;;;4975730;28;20160;-83
2023/10/06 02:40:11;;;;;;;73.93;12.93;;;12.70;96.00;;;;;;4957984;28;20192;-83
2023/10/06 02:43:16;;;;;;;72.95;13.10;;;12.70;97.50;;;;;;4975281;28;20199;-83
2023/10/06 02:45:40;;;;;;;72.72;13.60;;;12.70;97.40;;;;;;4971112;28;20175;-83
2023/10/06 02:48:14;;;;;;;75.03;13.40;;;12.60;98.30;;;;;;4975653;28;20636;-83
2023/10/06 02:50:46;;;;;;;73.20;14.73;;;12.60;98.60;;;;;;4975525;28;20148;-83
2023/10/06 02:53:20;;;;;;;76.43;12.85;;;12.60;99.00;;;;;;4957907;28;20191;-83
2023/10/06 02:55:48;;;;;;;75.53;12.32;;;12.60;98.20;;;;;;4975518;28;20627;-83
2023/10/06 02:58:18;;;;;;;74.97;13.18;;;12.60;97.50;;;;;;4974991;28;20168;-83
2023/10/06 03:00:50;;;;;;;74.72;12.60;;;12.60;98.10;;;;;;4975079;28;20191;-83
2023/10/06 03:03:18;;;;;;;74.18;13.48;;;12.50;98.40;;;;;;4976060;28;20219;-83
2023/10/06 03:05:49;;;;;;;74.75;14.63;;;12.50;99.90;;;;;;4975098;28;20653;-83
2023/10/06 03:08:20;;;;;;;77.55;17.50;;;12.40;99.90;;;;;;4957498;28;20164;-83
2023/10/06 03:10:48;;;;;;;73.35;15.90;;;12.30;99.90;;;;;;4957556;28;20176;-83
2023/10/06 03:13:31;;;;;;;76.85;17.33;;;12.20;99.90;;;;;;4975043;28;20685;-83
2023/10/06 03:15:57;;;;;;;81.18;22.05;;;12.20;99.90;;;;;;4957511;28;20171;-83
2023/10/06 03:18:23;;;;;;;79.13;20.30;;;12.10;99.90;;;;;;4975017;28;20703;-83
2023/10/06 03:20:57;;;;;;;75.00;19.67;;;12.10;99.90;;;;;;4975206;28;20184;-83
2023/10/06 03:23:37;;;;;;;77.90;17.85;;;12.20;99.90;;;;;;4975203;28;20435;-83
2023/10/06 03:26:04;;;;;;;78.75;21.17;;;12.20;99.90;;;;;;4957246;28;20173;-83
2023/10/06 03:28:36;;;;;;;75.95;18.33;;;12.20;99.90;;;;;;4957295;28;20167;-83
2023/10/06 03:31:22;;;;;;;74.03;19.15;;;12.30;99.90;;;;;;4975191;28;20156;-83
2023/10/06 03:33:50;;;;;;;78.65;21.88;;;12.30;99.90;;;;;;4957532;28;20936;-83
2023/10/06 03:36:16;;;;;;;75.10;18.20;;;12.30;99.90;;;;;;4974678;28;20172;-83
2023/10/06 03:38:52;;;;;;;72.57;16.80;;;12.40;99.90;;;;;;4957200;28;20204;-83
2023/10/06 03:41:19;;;;;;;74.78;15.98;;;12.30;99.90;;;;;;4973919;28;20359;-83
2023/10/06 03:43:53;;;;;;;76.93;18.92;;;12.40;99.90;;;;;;4974512;28;20187;-83
2023/10/06 03:46:20;;;;;;;75.32;17.35;;;12.40;99.90;;;;;;4958823;28;20174;-83
2023/10/06 03:48:49;;;;;;;76.75;15.73;;;12.30;99.90;;;;;;4974661;28;20171;-83
2023/10/06 03:51:19;;;;;;;74.45;17.75;;;12.20;99.90;;;;;;4974415;28;20164;-83
2023/10/06 03:53:47;;;;;;;78.85;18.38;;;12.20;99.90;;;;;;4974297;28;20184;-83
2023/10/06 03:56:13;;;;;;;74.97;15.50;;;12.20;99.90;;;;;;4974375;28;20163;-83
2023/10/06 03:58:39;;;;;;;72.78;16.67;;;12.20;99.90;;;;;;4957044;28;20545;-83
2023/10/06 04:01:09;;;;;;;75.40;17.60;;;12.30;99.90;;;;;;4974514;28;20187;-83
2023/10/06 04:03:35;;;;;;;77.45;18.35;;;12.30;99.90;;;;;;4957092;28;20450;-83
2023/10/06 04:06:04;;;;;;;77.43;17.58;;;12.30;99.90;;;;;;4974321;28;20215;-83
2023/10/06 04:08:29;;;;;;;76.10;19.58;;;12.30;99.90;;;;;;4974187;28;20187;-83
2023/10/06 04:10:58;;;;;;;74.60;18.30;;;12.20;99.90;;;;;;4974407;28;20164;-83
2023/10/06 04:13:28;;;;;;;75.15;18.20;;;12.10;99.90;;;;;;4956658;28;20191;-83
2023/10/06 04:15:53;;;;;;;74.63;20.27;;;12.10;99.90;;;;;;4974155;28;20176;-83
2023/10/06 04:18:23;;;;;;;76.83;20.07;;;12.20;99.90;;;;;;4974702;28;20181;-83
2023/10/06 04:20:51;;;;;;;78.78;19.20;;;12.10;99.90;;;;;;4974134;28;20513;-83
2023/10/06 04:23:17;;;;;;;82.93;19.52;;;12.10;99.90;;;;;;4974075;28;20191;-83
2023/10/06 04:25:47;;;;;;;75.82;18.90;;;12.00;99.90;;;;;;4974126;28;20170;-83
2023/10/06 04:28:14;;;;;;;83.25;20.90;;;12.10;99.90;;;;;;4974004;28;20186;-83
2023/10/06 04:30:45;;;;;;;77.90;19.80;;;12.00;99.90;;;;;;4974106;28;20534;-83
2023/10/06 04:33:14;;;;;;;77.90;23.08;;;12.00;99.90;;;;;;4974011;28;20215;-83
2023/10/06 04:35:55;;;;;;;81.07;20.02;;;11.90;99.90;;;;;;4973997;28;20163;-83
2023/10/06 04:38:21;;;;;;;76.88;18.48;;;12.00;99.90;;;;;;4974463;28;20152;-83
2023/10/06 04:40:48;;;;;;;81.00;19.25;;;12.00;99.90;;;;;;4975008;28;20188;-83
2023/10/06 04:43:17;;;;;;;79.47;22.13;;;12.10;99.90;;;;;;4974332;28;20192;-83
2023/10/06 04:45:44;;;;;;;78.43;22.42;;;12.10;99.90;;;;;;4974710;28;20242;-83
2023/10/06 04:48:12;;;;;;;76.13;21.50;;;12.10;99.90;;;;;;4974135;28;20247;-83
2023/10/06 04:50:38;;;;;;;80.00;23.60;;;12.00;99.90;;;;;;4957671;28;20358;-83
2023/10/06 04:53:06;;;;;;;76.85;20.23;;;12.00;99.90;;;;;;4976429;28;20191;-83
2023/10/06 04:55:38;;;;;;;78.15;20.60;;;12.00;99.90;;;;;;4977254;28;20164;-83
2023/10/06 04:58:13;;;;;;;77.70;20.58;;;12.00;99.90;;;;;;4977252;28;20175;-83
2023/10/06 05:00:40;;;;;;;78.80;21.48;;;12.10;99.90;;;;;;4977437;28;20184;-83
2023/10/06 05:03:06;;;;;;;78.68;21.02;;;12.00;99.90;;;;;;4959765;28;20239;-83
2023/10/06 05:05:42;;;;;;;74.68;19.63;;;11.90;99.90;;;;;;4959647;28;20262;-83
2023/10/06 05:08:09;;;;;;;75.25;18.40;;;11.90;99.90;;;;;;4977644;28;20650;-83
2023/10/06 05:10:36;;;;;;;75.72;19.98;;;11.90;99.90;;;;;;4977189;28;20211;-83
2023/10/06 05:13:05;;;;;;;79.15;23.77;;;11.90;99.90;;;;;;4977127;28;20200;-83
2023/10/06 05:15:34;;;;;;;79.05;21.85;;;11.90;99.90;;;;;;4977097;28;20160;-83
2023/10/06 05:18:02;;;;;;;81.45;21.55;;;11.90;99.90;;;;;;4977485;28;20172;-83
2023/10/06 05:20:29;;;;;;;80.90;20.42;;;11.90;99.90;;;;;;4976972;28;20187;-83
2023/10/06 05:23:06;;;;;;;76.28;21.83;;;12.00;99.90;;;;;;4977333;28;20198;-83
2023/10/06 05:25:33;;;;;;;82.55;18.80;;;12.00;99.90;;;;;;4959748;28;20170;-83
2023/10/06 05:28:02;;;;;;;76.03;21.75;;;12.00;99.90;;;;;;4959431;28;20179;-83
2023/10/06 05:30:29;;;;;;;80.03;19.70;;;11.90;99.90;;;;;;4978288;28;20227;-82
2023/10/06 05:32:59;;;;;;;76.18;20.85;;;11.90;99.90;;;;;;4960189;28;20187;-82
2023/10/06 05:35:26;;;;;;;74.93;17.55;;;11.90;99.90;;;;;;4959396;28;20211;-82
2023/10/06 05:37:53;;;;;;;76.95;19.48;;;11.90;99.90;;;;;;4976891;28;20218;-82
2023/10/06 05:40:20;;;;;;;76.78;20.25;;;11.90;99.90;;;;;;4976538;28;20192;-82
2023/10/06 05:42:49;;;;;;;74.75;17.33;;;11.80;99.90;;;;;;4976572;28;20206;-82
2023/10/06 05:45:18;;;;;;;75.97;21.42;;;11.80;99.90;;;;;;4976485;28;20219;-82
2023/10/06 05:47:50;;;;;;;75.60;19.55;;;11.70;99.90;;;;;;4976730;28;20188;-82
2023/10/06 05:50:26;;;;;;;73.78;17.38;;;11.70;99.90;;;;;;4976727;28;20199;-82
2023/10/06 05:52:58;;;;;;;82.22;18.80;;;11.60;99.90;;;;;;4976545;28;20195;-82
2023/10/06 05:58:00;;;;;;;77.03;18.10;;;11.50;99.90;;;;;;5063384;23;20234;-82
2023/10/06 06:00:30;;;;;;;81.35;24.27;;;11.50;99.90;;;;;;4996061;28;20179;-82
2023/10/06 06:02:58;;;;;;;76.72;25.60;;;11.60;99.90;;;;;;4983092;28;20208;-82
2023/10/06 06:05:29;;;;;;;79.82;27.73;;;11.70;99.90;;;;;;4975704;28;20172;-82
2023/10/06 06:07:59;;;;;;;77.78;25.80;;;11.70;99.90;;;;;;4976630;28;20188;-82
2023/10/06 06:10:25;;;;;;;77.82;22.38;;;11.80;99.90;;;;;;4958653;28;20179;-82
2023/10/06 06:12:50;;;;;;;78.88;25.73;;;11.80;99.90;;;;;;4976331;28;20199;-82
2023/10/06 06:15:16;;;;;;;82.43;24.47;;;11.90;99.90;;;;;;4976423;28;20171;-82
2023/10/06 06:17:45;;;;;;;80.93;27.87;;;11.90;99.90;;;;;;4975860;28;20523;-82
2023/10/06 06:20:14;;;;;;;81.00;22.85;;;11.90;99.90;;;;;;4975659;28;20474;-82
2023/10/06 06:22:43;;;;;;;82.82;25.73;;;11.90;99.90;;;;;;4975898;28;20184;-82
2023/10/06 06:25:09;;;;;;;82.00;27.85;;;11.90;99.90;;;;;;4975905;28;20565;-83
2023/10/06 06:27:35;;;;;;;79.32;25.40;;;12.00;99.90;;;;;;4975620;28;20214;-81
2023/10/06 06:30:00;;;;;;;77.60;25.20;;;12.00;99.90;;;;;;4958246;28;20175;-82
2023/10/06 06:32:26;;;;;;;79.70;29.57;;;11.90;99.90;;;;;;4975707;28;20192;-81
2023/10/06 06:34:53;;;;;;;78.27;24.70;;;11.90;99.90;;;;;;4975538;28;20168;-82
2023/10/06 06:37:20;;;;;;;81.57;26.00;;;11.90;99.90;;;;;;4975783;28;20168;-81
2023/10/06 06:39:46;;;;;;;82.75;27.48;;;11.90;99.90;;;;;;4957952;28;20183;-82
2023/10/06 06:42:12;;;;;;;80.30;31.17;;;11.90;99.90;;;;;;4978162;28;20187;-82
2023/10/06 06:44:37;;;;;;;81.23;29.20;;;12.00;99.90;;;;;;4979685;28;20160;-82
2023/10/06 06:47:03;;;;;;;85.77;31.93;;;12.00;99.90;;;;;;4978462;28;20164;-81
2023/10/06 06:49:29;;;;;;;80.13;31.27;;;12.10;99.90;;;;;;4960695;28;20168;-82
2023/10/06 06:51:58;;;;;;;81.53;28.00;;;12.10;99.90;;;;;;4977682;28;20530;-82
2023/10/06 06:54:25;;;;;;;79.88;29.33;;;12.20;99.90;;;;;;4978431;28;20788;-81
2023/10/06 06:56:50;;;;;;;78.85;29.25;;;12.20;99.90;;;;;;4960351;28;20191;-81
2023/10/06 06:59:19;;;;;;;81.70;30.43;;;12.20;99.90;;;;;;4978343;28;20195;-81
2023/10/06 07:01:47;;;;;;;83.57;34.53;;;12.20;99.90;;;;;;4977451;28;20572;-81
2023/10/06 07:04:13;;;;;;;82.40;33.47;;;12.30;99.90;;;;;;4977663;28;20156;-81
2023/10/06 07:06:39;;;;;;;80.80;29.13;;;12.30;99.90;;;;;;4977882;28;20175;-82
2023/10/06 07:09:12;;;;;;;83.50;38.27;;;12.30;99.90;;;;;;4960615;28;20419;-82
2023/10/06 07:11:39;;;;;;;82.47;39.60;;;12.50;99.90;;;;;;4977815;28;20545;-82
2023/10/06 07:14:05;;;;;;;83.03;38.28;;;12.60;99.90;;;;;;4978041;28;20160;-82
2023/10/06 07:16:33;;;;;;;86.55;38.45;;;12.60;99.90;;;;;;4975960;28;20192;-81
2023/10/06 07:18:59;;;;;;;84.88;35.80;;;12.70;99.90;;;;;;4958379;28;20176;-81
2023/10/06 07:21:24;;;;;;;84.67;37.13;;;12.80;99.90;;;;;;4975487;28;20743;-81
2023/10/06 07:23:52;;;;;;;87.83;40.77;;;12.80;99.90;;;;;;4976144;28;20164;-81
2023/10/06 07:26:17;;;;;;;83.47;39.20;;;13.00;99.90;;;;;;4958671;28;20187;-80
2023/10/06 07:28:44;;;;;;;82.53;34.50;;;13.10;99.90;;;;;;4975625;28;20195;-81
2023/10/06 07:31:16;;;;;;;85.90;35.10;;;13.10;99.90;;;;;;4975422;28;20175;-80
2023/10/06 07:33:47;;;;;;;88.70;47.63;;;13.20;99.90;;;;;;4975597;28;20752;-81
2023/10/06 07:36:13;;;;;;;90.53;48.25;;;13.40;99.90;;;;;;4957696;28;20268;-81
2023/10/06 07:38:43;;;;;;;84.47;45.23;;;13.40;99.90;;;;;;4974930;28;20175;-80
2023/10/06 07:41:16;;;;;;;90.63;42.77;;;13.60;99.90;;;;;;4974249;28;20458;-80
2023/10/06 07:43:42;;;;;;;86.37;45.47;;;13.70;99.90;;;;;;4974350;28;20415;-80
2023/10/06 07:46:08;;;;;;;84.00;43.30;;;13.70;99.90;;;;;;4974569;28;20796;-81
2023/10/06 07:48:39;;;;;;;84.80;40.80;;;13.80;99.90;;;;;;4957011;28;20653;-80
2023/10/06 07:51:06;;;;;;;82.80;31.27;;;13.90;99.90;;;;;;4974955;28;20195;-81
2023/10/06 07:53:35;;;;;;;79.10;28.70;;;14.00;99.90;;;;;;4974439;28;20434;-81
2023/10/06 07:56:07;;;;;;;82.03;31.43;;;14.10;99.90;;;;;;4974427;28;20411;-81
2023/10/06 07:58:41;;;;;;;80.20;25.17;;;14.10;99.90;;;;;;4975390;28;20511;-81
2023/10/06 08:01:08;;;;;;;82.00;23.47;;;14.10;99.90;;;;;;4975253;28;20804;-81
2023/10/06 08:03:41;;;;;;;75.33;16.57;;;14.20;99.90;;;;;;4975116;28;20430;-81
2023/10/06 08:06:08;;;;;;;76.87;20.47;;;14.30;99.90;;;;;;4957373;28;20507;-81
2023/10/06 08:08:34;;;;;;;81.87;21.30;;;14.30;99.90;;;;;;4974573;28;20439;-81
2023/10/06 08:11:05;;;;;;;79.10;17.70;;;14.40;99.90;;;;;;4958616;28;20416;-81
2023/10/06 08:13:37;;;;;;;78.87;16.80;;;14.40;99.90;;;;;;4976967;28;20506;-81
2023/10/06 08:16:06;;;;;;;74.10;17.63;;;14.50;99.90;;;;;;4976189;28;20745;-81
2023/10/06 08:18:32;;;;;;;75.80;18.03;;;14.50;99.90;;;;;;4958492;28;20423;-81
2023/10/06 08:21:00;;;;;;;82.53;28.27;;;14.50;99.90;;;;;;4977483;28;20812;-81
2023/10/06 08:23:31;;;;;;;78.60;26.93;;;14.50;99.90;;;;;;4975170;28;20208;-81
2023/10/06 08:25:58;;;;;;;79.17;25.17;;;14.50;99.90;;;;;;4959590;28;20750;-81
2023/10/06 08:28:26;;;;;;;81.97;26.57;;;14.50;99.90;;;;;;4980518;28;20414;-81
2023/10/06 08:30:54;;;;;;;77.93;19.60;;;14.60;99.90;;;;;;4980649;28;20411;-82
2023/10/06 08:33:20;;;;;;;77.70;16.77;;;14.50;99.90;;;;;;4963614;28;20493;-81
2023/10/06 08:35:46;;;;;;;78.83;20.73;;;14.50;99.90;;;;;;4980525;28;20892;-81
2023/10/06 08:38:12;;;;;;;82.07;24.47;;;14.50;99.90;;;;;;4980878;28;20176;-81
2023/10/06 08:40:42;;;;;;;84.60;14.87;;;14.60;99.90;;;;;;4980976;28;20774;-81
2023/10/06 08:43:08;;;;;;;75.60;16.17;;;14.70;99.90;;;;;;4980721;28;20191;-82
2023/10/06 08:45:40;;;;;;;75.77;15.43;;;14.70;99.90;;;;;;4980686;28;20837;-82
2023/10/06 08:48:11;;;;;;;77.30;17.97;;;14.80;99.90;;;;;;4963418;28;20404;-81
2023/10/06 08:50:37;;;;;;;75.60;17.03;;;14.80;99.90;;;;;;4962808;28;20399;-81
2023/10/06 08:53:09;;;;;;;75.77;15.17;;;14.80;99.90;;;;;;4962936;28;20490;-82
2023/10/06 08:55:39;;;;;;;77.47;22.43;;;14.90;99.90;;;;;;4980250;28;20239;-81
2023/10/06 08:58:07;;;;;;;77.37;16.70;;;14.90;99.90;;;;;;4960324;28;20478;-81
2023/10/06 09:00:36;;;;;;;80.07;21.03;;;15.00;99.90;;;;;;4977805;28;20435;-81
2023/10/06 09:03:08;;;;;;;73.80;16.37;;;15.10;99.90;;;;;;4977641;28;20525;-81
2023/10/06 09:05:37;;;;;;;77.20;23.50;;;15.20;99.90;;;;;;4960137;28;20434;-81
2023/10/06 09:08:06;;;;;;;81.20;25.50;;;15.20;97.90;;;;;;4977781;28;20399;-81
2023/10/06 09:10:36;;;;;;;81.60;26.20;;;15.30;97.00;;;;;;4977404;28;20469;-81
2023/10/06 09:13:08;;;;;;;77.20;26.17;;;15.40;99.90;;;;;;4977410;28;20478;-81
2023/10/06 09:15:39;;;;;;;78.20;26.00;;;15.40;98.80;;;;;;4977617;28;20414;-81
2023/10/06 09:18:22;;;;;;;77.57;18.70;;;15.50;94.40;;;;;;4977606;28;20388;-81
2023/10/06 09:20:49;;;;;;;74.20;10.37;;;15.60;90.60;;;;;;4959769;28;20482;-81
2023/10/06 09:23:36;;;;;;;75.13;9.80;;;15.60;83.00;;;;;;4959713;28;20434;-81
2023/10/06 09:26:04;;;;;;;73.97;12.13;;;15.60;79.20;;;;;;4959746;28;20407;-80
2023/10/06 09:28:31;;;;;;;77.20;8.57;;;15.70;78.10;;;;;;4977308;28;20919;-81
2023/10/06 09:31:01;;;;;;;72.47;6.60;;;15.90;64.80;;;;;;4977814;28;20461;-81
2023/10/06 09:33:29;;;;;;;73.30;5.97;;;16.10;60.90;;;;;;4977100;28;21015;-81
2023/10/06 09:36:01;;;;;;;76.00;7.03;;;16.20;61.80;;;;;;4977434;28;20490;-81
2023/10/06 09:38:28;;;;;;;76.07;11.00;;;16.30;46.30;;;;;;4975847;28;20388;-81
2023/10/06 09:40:54;;;;;;;73.93;11.27;;;16.40;38.40;;;;;;4977711;28;20450;-81
2023/10/06 09:43:22;;;;;;;78.37;16.37;;;16.60;48.60;;;;;;4980552;28;20428;-81
2023/10/06 09:45:51;;;;;;;77.20;19.23;;;16.80;42.80;;;;;;4979914;28;20175;-81
2023/10/06 09:48:22;;;;;;;71.50;7.87;;;16.90;31.30;;;;;;5053320;23;20493;-81
2023/10/06 09:50:51;;;;;;;74.63;15.67;;;17.00;8.30;;;;;;4998526;28;20825;-81
2023/10/06 09:53:19;;;;;;;71.80;7.50;;;17.10;11.10;;;;;;4964203;28;20439;-81
2023/10/06 09:55:49;;;;;;;74.70;5.70;;;17.20;9.80;;;;;;4960890;28;20414;-81
2023/10/06 09:58:19;;;;;;;73.63;5.77;;;17.40;1.00;;;;;;4978622;28;20833;-81
2023/10/06 10:00:45;;;;;;;71.27;5.20;;;17.60;1.00;;;;;;4978461;28;20526;-81
2023/10/06 10:03:12;;;;;;;72.13;5.40;;;17.80;1.00;;;;;;4978532;28;20482;-80
2023/10/06 10:05:39;;;;;;;70.10;4.87;;;17.90;1.00;;;;;;4977852;28;20171;-81
2023/10/06 10:08:06;;;;;;;74.70;4.93;;;18.00;1.00;;;;;;4977430;28;20813;-80
2023/10/06 10:10:35;;;;;;;72.37;4.80;;;18.10;1.00;;;;;;4977399;28;20438;-81
2023/10/06 10:13:26;;;;;;;70.17;5.00;;;18.30;1.00;;;;;;4960457;28;20525;-81
2023/10/06 10:16:38;;;;;;;70.70;3.97;;;18.50;1.00;;;;;;4960732;28;20408;-81
2023/10/06 10:19:21;;;;;;;71.57;4.23;;;18.70;1.00;;;;;;4980364;28;20821;-81
2023/10/06 10:21:48;;;;;;;74.40;4.40;;;18.70;1.00;;;;;;4980095;28;20839;-81
2023/10/06 10:24:28;;;;;;;72.70;4.70;;;18.70;1.00;;;;;;4961635;28;20412;-81
2023/10/06 10:26:54;;;;;;;73.37;4.67;;;18.70;1.00;;;;;;4977637;28;20388;-81
2023/10/06 10:29:20;;;;;;;70.67;4.90;;;18.60;1.00;;;;;;4976379;28;20504;-81
2023/10/06 10:32:13;;;;;;;78.47;4.90;;;18.60;1.00;;;;;;4975967;28;20266;-80
2023/10/06 10:35:14;;;;;;;71.40;4.73;;;18.70;1.00;;;;;;4947311;28;20198;-80
2023/10/06 10:37:59;;;;;;;70.70;4.80;;;18.70;1.00;;;;;;4975796;28;20409;-80
2023/10/06 10:40:47;;;;;;;71.50;4.97;;;19.00;1.00;;;;;;4975446;28;20459;-81
2023/10/06 10:43:14;;;;;;;70.40;4.30;;;19.20;1.00;;;;;;4958245;28;20494;-80
2023/10/06 10:45:45;;;;;;;71.47;3.87;;;19.40;1.00;;;;;;4958267;28;20415;-80
2023/10/06 10:48:15;;;;;;;74.27;4.67;;;19.50;1.00;;;;;;4975475;28;20880;-80
2023/10/06 10:51:01;;;;;;;70.70;4.20;;;19.60;1.00;;;;;;4975279;28;20391;-80
2023/10/06 10:53:42;;;;;;;75.20;5.40;;;19.70;1.00;;;;;;4958200;28;20812;-80
2023/10/06 10:56:19;;;;;;;70.50;5.57;;;19.80;1.00;;;;;;4975907;28;20932;-80
2023/10/06 10:58:45;;;;;;;77.60;5.80;;;19.90;1.00;;;;;;4975326;28;20403;-81
2023/10/06 11:01:40;;;;;;;72.23;5.00;;;20.00;1.00;;;;;;4975519;28;20442;-81
2023/10/06 11:04:21;;;;;;;77.57;4.40;;;20.00;1.00;;;;;;4955099;28;20259;-81
2023/10/06 11:06:49;;;;;;;77.20;4.73;;;20.10;1.00;;;;;;4975205;28;20501;-81
2023/10/06 11:09:29;;;;;;;74.10;5.80;;;20.20;1.00;;;;;;4975839;28;20478;-80
2023/10/06 11:12:09;;;;;;;72.77;9.33;;;20.40;1.00;;;;;;4975437;28;20447;-81
2023/10/06 11:14:38;;;;;;;76.70;8.20;;;20.50;1.00;;;;;;4958220;28;20411;-81
2023/10/06 11:17:07;;;;;;;72.30;6.70;;;20.60;1.00;;;;;;4975701;28;20980;-80
2023/10/06 11:19:34;;;;;;;72.30;7.23;;;20.40;1.00;;;;;;4976149;28;20419;-81
2023/10/06 11:22:22;;;;;;;72.47;13.47;;;20.50;1.00;;;;;;4958739;28;20814;-81
2023/10/06 11:24:57;;;;;;;73.50;13.70;;;20.60;1.00;;;;;;4958787;28;20793;-80
2023/10/06 11:27:24;;;;;;;76.17;14.60;;;20.70;1.00;;;;;;4975408;28;20397;-81
2023/10/06 11:29:51;;;;;;;78.30;16.47;;;20.70;1.00;;;;;;4957815;28;20535;-81
2023/10/06 11:32:18;;;;;;;77.80;15.80;;;20.70;1.00;;;;;;4975175;28;20423;-81
2023/10/06 11:34:48;;;;;;;75.97;14.73;;;20.60;1.00;;;;;;4975262;28;20407;-80
2023/10/06 11:37:17;;;;;;;73.80;8.97;;;20.60;1.00;;;;;;4975514;28;20403;-81
2023/10/06 11:39:44;;;;;;;72.30;9.37;;;20.50;1.00;;;;;;4974841;28;20462;-80
2023/10/06 11:42:32;;;;;;;75.00;11.27;;;20.40;1.00;;;;;;4975300;28;20843;-81
2023/10/06 11:44:59;;;;;;;73.07;6.90;;;20.50;1.00;;;;;;4957423;28;20399;-81
2023/10/06 11:47:28;;;;;;;77.30;9.30;;;20.50;1.00;;;;;;4957354;28;20917;-81
2023/10/06 11:49:54;;;;;;;74.73;16.07;;;20.70;1.00;;;;;;4974523;28;20928;-81
2023/10/06 11:52:20;;;;;;;75.60;14.77;;;20.80;1.00;;;;;;4974689;28;20434;-81
2023/10/06 11:54:49;;;;;;;75.47;12.90;;;20.90;1.00;;;;;;4974902;28;20473;-81
2023/10/06 11:57:15;;;;;;;78.13;18.40;;;21.00;1.00;;;;;;4957234;28;20760;-80
2023/10/06 11:59:51;;;;;;;76.40;19.73;;;21.30;1.00;;;;;;4974505;28;20410;-80
2023/10/06 12:02:24;;;;;;;73.87;15.73;;;21.30;1.00;;;;;;4958707;28;20438;-80
2023/10/06 12:04:53;;;;;;;77.60;18.27;;;21.30;1.00;;;;;;4979231;28;20387;-81
2023/10/06 12:07:23;;;;;;;75.90;18.60;;;21.20;1.00;;;;;;4978414;28;20400;-81
2023/10/06 12:09:49;;;;;;;76.47;17.67;;;21.20;1.00;;;;;;4961812;28;20494;-81
2023/10/06 12:12:18;;;;;;;74.87;15.20;;;21.40;1.00;;;;;;4979105;28;20426;-81
2023/10/06 12:14:45;;;;;;;72.87;11.13;;;21.50;1.00;;;;;;4978593;28;20469;-81
2023/10/06 12:17:13;;;;;;;74.57;13.47;;;21.50;1.00;;;;;;4978744;28;20913;-81
2023/10/06 12:19:42;;;;;;;72.40;10.07;;;21.60;1.00;;;;;;4978722;28;20443;-80
2023/10/06 12:22:08;;;;;;;73.40;8.20;;;21.50;1.00;;;;;;4978648;28;20829;-81
2023/10/06 12:24:33;;;;;;;77.37;8.43;;;21.40;1.00;;;;;;4961357;28;20400;-81
2023/10/06 12:26:59;;;;;;;77.97;13.07;;;21.40;1.00;;;;;;4978812;28;20492;-81
2023/10/06 12:29:25;;;;;;;78.03;16.53;;;21.20;1.00;;;;;;4978498;28;20163;-81
2023/10/06 12:31:51;;;;;;;75.23;14.37;;;21.20;1.00;;;;;;4960941;28;20219;-81
2023/10/06 12:34:16;;;;;;;75.07;13.60;;;21.20;1.00;;;;;;4978424;28;20454;-81
2023/10/06 12:36:47;;;;;;;76.60;14.17;;;21.00;1.00;;;;;;4978831;28;20172;-80
2023/10/06 12:39:17;;;;;;;73.90;12.90;;;20.80;1.00;;;;;;4978823;28;20168;-81
2023/10/06 12:41:46;;;;;;;75.00;12.90;;;20.70;1.00;;;;;;4961217;28;20468;-80
2023/10/06 12:44:16;;;;;;;72.93;12.83;;;20.60;1.00;;;;;;4978294;28;20429;-80
2023/10/06 12:46:41;;;;;;;73.37;13.77;;;20.60;1.00;;;;;;4977914;28;20400;-80
2023/10/06 12:49:07;;;;;;;77.03;13.43;;;20.60;1.00;;;;;;4977922;28;20434;-80
2023/10/06 12:51:34;;;;;;;71.63;10.57;;;20.60;1.00;;;;;;4961537;28;20183;-81
2023/10/06 12:54:00;;;;;;;72.00;10.70;;;20.40;1.00;;;;;;4960335;28;20172;-80
2023/10/06 12:56:28;;;;;;;78.10;14.90;;;20.30;1.00;;;;;;4977785;28;20407;-80
2023/10/06 12:58:54;;;;;;;73.30;15.93;;;20.20;1.00;;;;;;4977657;28;20160;-80
2023/10/06 13:01:20;;;;;;;76.10;20.40;;;20.20;1.00;;;;;;4977484;28;20449;-81